sensor_id;sensor_type;location;lat;lon;timestamp;P1;durP1;ratioP1;P2;durP2;ratioP2
15110;SDS011;7656;51.954;7.998;2023-03-11T00:00:45;2.17;;;1.97;;
15110;SDS011;7656;51.954;7.998;2023-03-11T00:05:08;2.30;;;2.10;;
15110;SDS011;7656;51.954;7.998;2023-03-11T00:09:33;2.07;;;1.80;;
15110;SDS011;7656;51.954;7.998;2023-03-11T00:13:54;2.57;;;2.10;;
15110;SDS011;7656;51.954;7.998;2023-03-11T00:18:16;4.00;;;1.83;;
15110;SDS011;7656;51.954;7.998;2023-03-11T00:22:37;1.60;;;1.50;;
15110;SDS011;7656;51.954;7.998;2023-03-11T00:26:58;3.40;;;2.33;;
15110;SDS011;7656;51.954;7.998;2023-03-11T00:31:20;2.00;;;1.87;;
15110;SDS011;7656;51.954;7.998;2023-03-11T00:35:42;1.50;;;1.40;;
15110;SDS011;7656;51.954;7.998;2023-03-11T00:40:04;2.33;;;2.13;;
15110;SDS011;7656;51.954;7.998;2023-03-11T00:44:29;3.27;;;1.50;;
15110;SDS011;7656;51.954;7.998;2023-03-11T00:48:51;3.93;;;2.10;;
15110;SDS011;7656;51.954;7.998;2023-03-11T00:53:13;2.30;;;1.97;;
15110;SDS011;7656;51.954;7.998;2023-03-11T00:57:34;3.00;;;1.90;;
15110;SDS011;7656;51.954;7.998;2023-03-11T01:01:55;2.80;;;2.00;;
15110;SDS011;7656;51.954;7.998;2023-03-11T01:06:16;3.13;;;1.83;;
15110;SDS011;7656;51.954;7.998;2023-03-11T01:10:37;2.23;;;2.00;;
15110;SDS011;7656;51.954;7.998;2023-03-11T01:14:58;4.10;;;1.73;;
15110;SDS011;7656;51.954;7.998;2023-03-11T01:19:19;2.13;;;1.80;;
15110;SDS011;7656;51.954;7.998;2023-03-11T01:23:41;1.67;;;1.57;;
15110;SDS011;7656;51.954;7.998;2023-03-11T01:28:05;2.47;;;1.83;;
15110;SDS011;7656;51.954;7.998;2023-03-11T01:32:28;2.20;;;2.00;;
15110;SDS011;7656;51.954;7.998;2023-03-11T01:36:50;2.97;;;2.03;;
15110;SDS011;7656;51.954;7.998;2023-03-11T01:41:11;3.53;;;1.97;;
15110;SDS011;7656;51.954;7.998;2023-03-11T01:50:15;2.27;;;1.47;;
15110;SDS011;7656;51.954;7.998;2023-03-11T01:54:38;2.40;;;2.20;;
15110;SDS011;7656;51.954;7.998;2023-03-11T01:59:01;2.10;;;1.90;;
15110;SDS011;7656;51.954;7.998;2023-03-11T02:03:24;3.13;;;1.90;;
15110;SDS011;7656;51.954;7.998;2023-03-11T02:07:51;2.60;;;1.67;;
15110;SDS011;7656;51.954;7.998;2023-03-11T02:12:17;2.83;;;1.80;;
15110;SDS011;7656;51.954;7.998;2023-03-11T02:16:38;2.13;;;1.90;;
15110;SDS011;7656;51.954;7.998;2023-03-11T02:21:12;1.67;;;1.57;;
15110;SDS011;7656;51.954;7.998;2023-03-11T02:25:50;2.30;;;1.30;;
15110;SDS011;7656;51.954;7.998;2023-03-11T02:30:35;3.53;;;1.50;;
15110;SDS011;7656;51.954;7.998;2023-03-11T02:35:00;1.70;;;1.60;;
15110;SDS011;7656;51.954;7.998;2023-03-11T02:39:32;1.67;;;1.57;;
15110;SDS011;7656;51.954;7.998;2023-03-11T02:44:00;1.50;;;1.40;;
15110;SDS011;7656;51.954;7.998;2023-03-11T02:48:24;2.03;;;1.83;;
15110;SDS011;7656;51.954;7.998;2023-03-11T02:52:47;2.83;;;1.63;;
15110;SDS011;7656;51.954;7.998;2023-03-11T02:57:09;1.47;;;1.17;;
15110;SDS011;7656;51.954;7.998;2023-03-11T03:01:30;3.90;;;1.73;;
15110;SDS011;7656;51.954;7.998;2023-03-11T03:05:52;5.30;;;1.67;;
15110;SDS011;7656;51.954;7.998;2023-03-11T03:10:14;1.27;;;1.17;;
15110;SDS011;7656;51.954;7.998;2023-03-11T03:14:37;1.37;;;1.10;;
15110;SDS011;7656;51.954;7.998;2023-03-11T03:18:58;1.93;;;1.57;;
15110;SDS011;7656;51.954;7.998;2023-03-11T03:23:20;1.80;;;1.40;;
15110;SDS011;7656;51.954;7.998;2023-03-11T03:27:41;3.13;;;1.40;;
15110;SDS011;7656;51.954;7.998;2023-03-11T03:32:02;2.67;;;1.53;;
15110;SDS011;7656;51.954;7.998;2023-03-11T03:36:24;1.17;;;1.07;;
15110;SDS011;7656;51.954;7.998;2023-03-11T03:40:50;3.67;;;1.50;;
15110;SDS011;7656;51.954;7.998;2023-03-11T03:45:14;2.33;;;1.57;;
15110;SDS011;7656;51.954;7.998;2023-03-11T03:49:35;4.07;;;2.07;;
15110;SDS011;7656;51.954;7.998;2023-03-11T03:53:56;2.90;;;1.43;;
15110;SDS011;7656;51.954;7.998;2023-03-11T03:58:19;3.87;;;1.33;;
15110;SDS011;7656;51.954;7.998;2023-03-11T04:02:42;2.43;;;1.70;;
15110;SDS011;7656;51.954;7.998;2023-03-11T04:07:12;2.83;;;1.40;;
15110;SDS011;7656;51.954;7.998;2023-03-11T04:11:33;4.00;;;1.37;;
15110;SDS011;7656;51.954;7.998;2023-03-11T04:15:56;2.23;;;1.43;;
15110;SDS011;7656;51.954;7.998;2023-03-11T04:20:17;5.40;;;1.67;;
15110;SDS011;7656;51.954;7.998;2023-03-11T04:24:42;1.93;;;1.00;;
15110;SDS011;7656;51.954;7.998;2023-03-11T04:29:03;1.70;;;1.20;;
15110;SDS011;7656;51.954;7.998;2023-03-11T04:33:29;1.00;;;0.90;;
15110;SDS011;7656;51.954;7.998;2023-03-11T04:37:50;5.87;;;1.47;;
15110;SDS011;7656;51.954;7.998;2023-03-11T04:42:12;3.67;;;1.10;;
15110;SDS011;7656;51.954;7.998;2023-03-11T04:46:35;1.97;;;1.20;;
15110;SDS011;7656;51.954;7.998;2023-03-11T04:50:59;1.00;;;0.90;;
15110;SDS011;7656;51.954;7.998;2023-03-11T04:55:23;0.97;;;0.97;;
15110;SDS011;7656;51.954;7.998;2023-03-11T04:59:44;3.93;;;1.33;;
15110;SDS011;7656;51.954;7.998;2023-03-11T05:04:07;3.10;;;1.17;;
15110;SDS011;7656;51.954;7.998;2023-03-11T05:08:29;4.53;;;1.43;;
15110;SDS011;7656;51.954;7.998;2023-03-11T05:12:51;2.53;;;1.13;;
15110;SDS011;7656;51.954;7.998;2023-03-11T05:17:14;2.20;;;1.30;;
15110;SDS011;7656;51.954;7.998;2023-03-11T05:21:38;3.93;;;1.40;;
15110;SDS011;7656;51.954;7.998;2023-03-11T05:25:59;1.43;;;1.00;;
15110;SDS011;7656;51.954;7.998;2023-03-11T05:30:22;1.23;;;1.10;;
15110;SDS011;7656;51.954;7.998;2023-03-11T05:34:43;3.97;;;1.13;;
15110;SDS011;7656;51.954;7.998;2023-03-11T05:39:05;3.90;;;1.60;;
15110;SDS011;7656;51.954;7.998;2023-03-11T05:43:28;3.30;;;1.10;;
15110;SDS011;7656;51.954;7.998;2023-03-11T05:47:53;1.93;;;1.27;;
15110;SDS011;7656;51.954;7.998;2023-03-11T05:52:14;4.27;;;1.40;;
15110;SDS011;7656;51.954;7.998;2023-03-11T05:56:36;4.10;;;1.30;;
15110;SDS011;7656;51.954;7.998;2023-03-11T06:00:58;1.23;;;1.13;;
15110;SDS011;7656;51.954;7.998;2023-03-11T06:05:21;2.30;;;1.30;;
15110;SDS011;7656;51.954;7.998;2023-03-11T06:09:44;2.47;;;1.20;;
15110;SDS011;7656;51.954;7.998;2023-03-11T06:14:10;1.77;;;1.27;;
15110;SDS011;7656;51.954;7.998;2023-03-11T06:18:34;4.27;;;1.53;;
15110;SDS011;7656;51.954;7.998;2023-03-11T06:22:56;2.90;;;1.57;;
15110;SDS011;7656;51.954;7.998;2023-03-11T06:27:18;0.93;;;0.80;;
15110;SDS011;7656;51.954;7.998;2023-03-11T06:31:39;4.90;;;1.27;;
15110;SDS011;7656;51.954;7.998;2023-03-11T06:36:04;2.97;;;1.00;;
15110;SDS011;7656;51.954;7.998;2023-03-11T06:40:26;2.67;;;1.33;;
15110;SDS011;7656;51.954;7.998;2023-03-11T06:44:48;5.77;;;1.47;;
15110;SDS011;7656;51.954;7.998;2023-03-11T06:49:09;2.27;;;1.10;;
15110;SDS011;7656;51.954;7.998;2023-03-11T06:53:33;3.83;;;1.40;;
15110;SDS011;7656;51.954;7.998;2023-03-11T06:57:54;4.37;;;1.27;;
15110;SDS011;7656;51.954;7.998;2023-03-11T07:02:15;2.27;;;1.33;;
15110;SDS011;7656;51.954;7.998;2023-03-11T07:06:37;1.97;;;1.20;;
15110;SDS011;7656;51.954;7.998;2023-03-11T07:11:17;1.30;;;1.20;;
15110;SDS011;7656;51.954;7.998;2023-03-11T07:15:46;2.20;;;1.70;;
15110;SDS011;7656;51.954;7.998;2023-03-11T07:20:07;2.57;;;1.50;;
15110;SDS011;7656;51.954;7.998;2023-03-11T07:24:29;1.83;;;1.40;;
15110;SDS011;7656;51.954;7.998;2023-03-11T07:28:50;3.43;;;1.37;;
15110;SDS011;7656;51.954;7.998;2023-03-11T07:33:14;3.07;;;1.57;;
15110;SDS011;7656;51.954;7.998;2023-03-11T07:37:35;2.67;;;1.33;;
15110;SDS011;7656;51.954;7.998;2023-03-11T07:41:56;4.17;;;1.40;;
15110;SDS011;7656;51.954;7.998;2023-03-11T07:46:27;2.80;;;1.50;;
15110;SDS011;7656;51.954;7.998;2023-03-11T07:50:49;1.48;;;1.35;;
15110;SDS011;7656;51.954;7.998;2023-03-11T07:55:29;3.22;;;1.67;;
15110;SDS011;7656;51.954;7.998;2023-03-11T07:59:50;2.83;;;1.70;;
15110;SDS011;7656;51.954;7.998;2023-03-11T08:04:11;3.08;;;1.27;;
15110;SDS011;7656;51.954;7.998;2023-03-11T08:08:35;2.15;;;1.38;;
15110;SDS011;7656;51.954;7.998;2023-03-11T08:12:56;1.80;;;1.58;;
15110;SDS011;7656;51.954;7.998;2023-03-11T08:17:17;2.05;;;1.67;;
15110;SDS011;7656;51.954;7.998;2023-03-11T08:21:39;2.53;;;1.63;;
15110;SDS011;7656;51.954;7.998;2023-03-11T08:26:03;3.58;;;1.40;;
15110;SDS011;7656;51.954;7.998;2023-03-11T08:30:26;1.25;;;1.15;;
15110;SDS011;7656;51.954;7.998;2023-03-11T08:34:47;2.83;;;1.40;;
15110;SDS011;7656;51.954;7.998;2023-03-11T08:39:08;1.67;;;1.50;;
15110;SDS011;7656;51.954;7.998;2023-03-11T08:43:29;2.53;;;1.45;;
15110;SDS011;7656;51.954;7.998;2023-03-11T08:47:51;2.20;;;1.13;;
15110;SDS011;7656;51.954;7.998;2023-03-11T08:52:12;4.10;;;1.33;;
15110;SDS011;7656;51.954;7.998;2023-03-11T08:56:33;2.20;;;1.33;;
15110;SDS011;7656;51.954;7.998;2023-03-11T09:00:54;2.10;;;1.30;;
15110;SDS011;7656;51.954;7.998;2023-03-11T09:05:16;1.77;;;1.60;;
15110;SDS011;7656;51.954;7.998;2023-03-11T09:09:38;2.42;;;1.38;;
15110;SDS011;7656;51.954;7.998;2023-03-11T09:13:59;2.60;;;1.67;;
15110;SDS011;7656;51.954;7.998;2023-03-11T09:18:20;3.78;;;1.25;;
15110;SDS011;7656;51.954;7.998;2023-03-11T09:22:41;2.13;;;1.30;;
15110;SDS011;7656;51.954;7.998;2023-03-11T09:27:02;2.75;;;1.10;;
15110;SDS011;7656;51.954;7.998;2023-03-11T09:31:24;1.83;;;1.45;;
15110;SDS011;7656;51.954;7.998;2023-03-11T09:35:45;1.15;;;1.00;;
15110;SDS011;7656;51.954;7.998;2023-03-11T09:40:06;4.00;;;1.10;;
15110;SDS011;7656;51.954;7.998;2023-03-11T09:44:33;1.08;;;1.00;;
15110;SDS011;7656;51.954;7.998;2023-03-11T09:49:57;4.45;;;0.95;;
15110;SDS011;7656;51.954;7.998;2023-03-11T09:54:33;2.35;;;0.98;;
15110;SDS011;7656;51.954;7.998;2023-03-11T09:59:02;2.80;;;1.10;;
15110;SDS011;7656;51.954;7.998;2023-03-11T10:03:33;2.60;;;1.10;;
15110;SDS011;7656;51.954;7.998;2023-03-11T10:22:06;2.88;;;1.02;;
15110;SDS011;7656;51.954;7.998;2023-03-11T10:26:40;3.22;;;1.20;;
15110;SDS011;7656;51.954;7.998;2023-03-11T10:31:06;2.20;;;1.02;;
15110;SDS011;7656;51.954;7.998;2023-03-11T10:35:43;0.85;;;0.80;;
15110;SDS011;7656;51.954;7.998;2023-03-11T10:40:27;1.63;;;1.13;;
15110;SDS011;7656;51.954;7.998;2023-03-11T10:44:54;2.10;;;1.00;;
15110;SDS011;7656;51.954;7.998;2023-03-11T10:49:16;2.53;;;1.15;;
15110;SDS011;7656;51.954;7.998;2023-03-11T10:53:45;2.05;;;0.90;;
15110;SDS011;7656;51.954;7.998;2023-03-11T10:58:11;1.27;;;0.98;;
15110;SDS011;7656;51.954;7.998;2023-03-11T11:02:50;1.48;;;1.00;;
15110;SDS011;7656;51.954;7.998;2023-03-11T11:07:20;3.97;;;1.17;;
15110;SDS011;7656;51.954;7.998;2023-03-11T11:12:04;2.28;;;0.90;;
15110;SDS011;7656;51.954;7.998;2023-03-11T11:16:33;1.17;;;1.08;;
15110;SDS011;7656;51.954;7.998;2023-03-11T11:21:04;1.85;;;0.95;;
15110;SDS011;7656;51.954;7.998;2023-03-11T11:25:35;2.58;;;1.33;;
15110;SDS011;7656;51.954;7.998;2023-03-11T11:30:12;8.25;;;0.98;;
15110;SDS011;7656;51.954;7.998;2023-03-11T11:34:36;1.30;;;0.80;;
15110;SDS011;7656;51.954;7.998;2023-03-11T11:38:57;2.53;;;0.95;;
15110;SDS011;7656;51.954;7.998;2023-03-11T11:43:31;1.53;;;1.03;;
15110;SDS011;7656;51.954;7.998;2023-03-11T11:47:54;0.70;;;0.70;;
15110;SDS011;7656;51.954;7.998;2023-03-11T11:52:32;1.90;;;1.00;;
15110;SDS011;7656;51.954;7.998;2023-03-11T11:56:58;1.80;;;0.60;;
15110;SDS011;7656;51.954;7.998;2023-03-11T12:01:37;2.77;;;1.40;;
15110;SDS011;7656;51.954;7.998;2023-03-11T12:15:27;2.47;;;1.30;;
15110;SDS011;7656;51.954;7.998;2023-03-11T12:19:59;2.33;;;0.90;;
15110;SDS011;7656;51.954;7.998;2023-03-11T12:29:25;0.70;;;0.70;;
15110;SDS011;7656;51.954;7.998;2023-03-11T12:33:57;2.67;;;0.83;;
15110;SDS011;7656;51.954;7.998;2023-03-11T12:38:32;3.63;;;0.90;;
15110;SDS011;7656;51.954;7.998;2023-03-11T12:42:54;2.40;;;0.83;;
15110;SDS011;7656;51.954;7.998;2023-03-11T12:47:20;2.93;;;0.87;;
15110;SDS011;7656;51.954;7.998;2023-03-11T12:56:39;0.73;;;0.63;;
15110;SDS011;7656;51.954;7.998;2023-03-11T13:01:20;0.80;;;0.80;;
15110;SDS011;7656;51.954;7.998;2023-03-11T13:06:13;3.33;;;1.07;;
15110;SDS011;7656;51.954;7.998;2023-03-11T13:10:49;1.00;;;0.90;;
15110;SDS011;7656;51.954;7.998;2023-03-11T13:19:45;0.83;;;0.67;;
15110;SDS011;7656;51.954;7.998;2023-03-11T13:28:50;1.80;;;0.83;;
15110;SDS011;7656;51.954;7.998;2023-03-11T13:33:30;1.37;;;1.00;;
15110;SDS011;7656;51.954;7.998;2023-03-11T13:43:04;6.57;;;4.80;;
15110;SDS011;7656;51.954;7.998;2023-03-11T13:47:38;2.33;;;0.90;;
15110;SDS011;7656;51.954;7.998;2023-03-11T13:52:07;1.57;;;0.80;;
15110;SDS011;7656;51.954;7.998;2023-03-11T13:56:36;4.30;;;1.00;;
15110;SDS011;7656;51.954;7.998;2023-03-11T14:01:09;5.73;;;1.23;;
15110;SDS011;7656;51.954;7.998;2023-03-11T14:05:37;4.20;;;1.00;;
15110;SDS011;7656;51.954;7.998;2023-03-11T14:10:25;1.73;;;0.70;;
15110;SDS011;7656;51.954;7.998;2023-03-11T14:14:55;1.00;;;0.80;;
15110;SDS011;7656;51.954;7.998;2023-03-11T14:19:22;1.60;;;1.00;;
15110;SDS011;7656;51.954;7.998;2023-03-11T14:23:47;1.27;;;0.70;;
15110;SDS011;7656;51.954;7.998;2023-03-11T14:28:17;0.87;;;0.70;;
15110;SDS011;7656;51.954;7.998;2023-03-11T14:32:40;3.40;;;0.93;;
15110;SDS011;7656;51.954;7.998;2023-03-11T14:37:01;1.60;;;0.93;;
15110;SDS011;7656;51.954;7.998;2023-03-11T14:41:24;2.43;;;1.13;;
15110;SDS011;7656;51.954;7.998;2023-03-11T14:45:45;0.83;;;0.63;;
15110;SDS011;7656;51.954;7.998;2023-03-11T14:50:10;1.10;;;1.00;;
15110;SDS011;7656;51.954;7.998;2023-03-11T14:54:41;1.07;;;0.77;;
15110;SDS011;7656;51.954;7.998;2023-03-11T14:59:12;2.07;;;1.60;;
15110;SDS011;7656;51.954;7.998;2023-03-11T15:03:55;2.53;;;1.10;;
15110;SDS011;7656;51.954;7.998;2023-03-11T15:08:35;1.77;;;1.10;;
15110;SDS011;7656;51.954;7.998;2023-03-11T15:13:11;3.03;;;1.53;;
15110;SDS011;7656;51.954;7.998;2023-03-11T15:17:35;1.50;;;0.97;;
15110;SDS011;7656;51.954;7.998;2023-03-11T15:22:04;2.20;;;0.80;;
15110;SDS011;7656;51.954;7.998;2023-03-11T15:26:59;2.50;;;0.90;;
15110;SDS011;7656;51.954;7.998;2023-03-11T15:35:54;5.70;;;2.87;;
15110;SDS011;7656;51.954;7.998;2023-03-11T15:40:25;3.20;;;1.40;;
15110;SDS011;7656;51.954;7.998;2023-03-11T15:49:31;3.23;;;1.20;;
15110;SDS011;7656;51.954;7.998;2023-03-11T15:53:53;3.23;;;1.60;;
15110;SDS011;7656;51.954;7.998;2023-03-11T15:58:15;2.83;;;1.73;;
15110;SDS011;7656;51.954;7.998;2023-03-11T16:02:38;3.30;;;1.20;;
15110;SDS011;7656;51.954;7.998;2023-03-11T16:06:59;2.47;;;1.40;;
15110;SDS011;7656;51.954;7.998;2023-03-11T16:11:20;2.60;;;1.40;;
15110;SDS011;7656;51.954;7.998;2023-03-11T16:15:41;1.47;;;1.37;;
15110;SDS011;7656;51.954;7.998;2023-03-11T16:20:05;2.20;;;1.23;;
15110;SDS011;7656;51.954;7.998;2023-03-11T16:24:26;1.93;;;1.27;;
15110;SDS011;7656;51.954;7.998;2023-03-11T16:28:47;1.97;;;1.07;;
15110;SDS011;7656;51.954;7.998;2023-03-11T16:33:08;2.00;;;1.17;;
15110;SDS011;7656;51.954;7.998;2023-03-11T16:37:29;4.63;;;1.13;;
15110;SDS011;7656;51.954;7.998;2023-03-11T16:41:50;2.40;;;1.20;;
15110;SDS011;7656;51.954;7.998;2023-03-11T16:46:11;0.73;;;0.73;;
15110;SDS011;7656;51.954;7.998;2023-03-11T16:50:33;1.40;;;1.30;;
15110;SDS011;7656;51.954;7.998;2023-03-11T16:54:54;3.60;;;1.40;;
15110;SDS011;7656;51.954;7.998;2023-03-11T16:59:15;1.33;;;1.13;;
15110;SDS011;7656;51.954;7.998;2023-03-11T17:03:36;3.37;;;1.67;;
15110;SDS011;7656;51.954;7.998;2023-03-11T17:07:59;2.83;;;1.43;;
15110;SDS011;7656;51.954;7.998;2023-03-11T17:12:23;3.60;;;1.20;;
15110;SDS011;7656;51.954;7.998;2023-03-11T17:16:45;1.80;;;1.17;;
15110;SDS011;7656;51.954;7.998;2023-03-11T17:21:10;1.10;;;1.00;;
15110;SDS011;7656;51.954;7.998;2023-03-11T17:25:37;12.73;;;6.07;;
15110;SDS011;7656;51.954;7.998;2023-03-11T17:30:01;4.80;;;2.97;;
15110;SDS011;7656;51.954;7.998;2023-03-11T17:34:25;4.00;;;1.43;;
15110;SDS011;7656;51.954;7.998;2023-03-11T17:38:46;3.03;;;1.50;;
15110;SDS011;7656;51.954;7.998;2023-03-11T17:43:07;3.00;;;2.00;;
15110;SDS011;7656;51.954;7.998;2023-03-11T17:47:28;4.37;;;2.10;;
15110;SDS011;7656;51.954;7.998;2023-03-11T17:51:52;2.53;;;2.10;;
15110;SDS011;7656;51.954;7.998;2023-03-11T17:56:14;7.67;;;2.40;;
15110;SDS011;7656;51.954;7.998;2023-03-11T18:00:37;8.00;;;3.60;;
15110;SDS011;7656;51.954;7.998;2023-03-11T18:04:58;7.03;;;3.20;;
15110;SDS011;7656;51.954;7.998;2023-03-11T18:09:19;9.47;;;5.07;;
15110;SDS011;7656;51.954;7.998;2023-03-11T18:13:41;10.90;;;6.40;;
15110;SDS011;7656;51.954;7.998;2023-03-11T18:18:02;13.80;;;7.80;;
15110;SDS011;7656;51.954;7.998;2023-03-11T18:22:23;12.60;;;6.70;;
15110;SDS011;7656;51.954;7.998;2023-03-11T18:26:44;12.07;;;7.57;;
15110;SDS011;7656;51.954;7.998;2023-03-11T18:31:06;11.67;;;6.10;;
15110;SDS011;7656;51.954;7.998;2023-03-11T18:35:36;9.43;;;5.93;;
15110;SDS011;7656;51.954;7.998;2023-03-11T18:39:57;7.53;;;4.87;;
15110;SDS011;7656;51.954;7.998;2023-03-11T18:44:19;9.60;;;5.63;;
15110;SDS011;7656;51.954;7.998;2023-03-11T18:48:40;10.23;;;6.03;;
15110;SDS011;7656;51.954;7.998;2023-03-11T18:53:02;11.20;;;6.83;;
15110;SDS011;7656;51.954;7.998;2023-03-11T18:57:23;13.37;;;8.23;;
15110;SDS011;7656;51.954;7.998;2023-03-11T19:01:44;13.10;;;7.43;;
15110;SDS011;7656;51.954;7.998;2023-03-11T19:06:06;10.03;;;7.30;;
15110;SDS011;7656;51.954;7.998;2023-03-11T19:10:32;10.00;;;6.63;;
15110;SDS011;7656;51.954;7.998;2023-03-11T19:14:53;12.93;;;7.20;;
15110;SDS011;7656;51.954;7.998;2023-03-11T19:19:14;8.60;;;5.90;;
15110;SDS011;7656;51.954;7.998;2023-03-11T19:23:35;16.33;;;9.17;;
15110;SDS011;7656;51.954;7.998;2023-03-11T19:27:56;12.90;;;7.33;;
15110;SDS011;7656;51.954;7.998;2023-03-11T19:32:17;10.77;;;6.87;;
15110;SDS011;7656;51.954;7.998;2023-03-11T19:36:38;11.30;;;6.17;;
15110;SDS011;7656;51.954;7.998;2023-03-11T19:41:01;8.50;;;5.50;;
15110;SDS011;7656;51.954;7.998;2023-03-11T19:45:25;9.13;;;5.10;;
15110;SDS011;7656;51.954;7.998;2023-03-11T19:49:49;9.03;;;5.53;;
15110;SDS011;7656;51.954;7.998;2023-03-11T19:54:10;7.93;;;5.03;;
15110;SDS011;7656;51.954;7.998;2023-03-11T19:58:33;11.60;;;5.80;;
15110;SDS011;7656;51.954;7.998;2023-03-11T20:02:54;7.87;;;5.73;;
15110;SDS011;7656;51.954;7.998;2023-03-11T20:07:16;9.07;;;6.00;;
15110;SDS011;7656;51.954;7.998;2023-03-11T20:11:38;10.37;;;6.37;;
15110;SDS011;7656;51.954;7.998;2023-03-11T20:16:04;14.33;;;8.20;;
15110;SDS011;7656;51.954;7.998;2023-03-11T20:20:31;11.40;;;7.43;;
15110;SDS011;7656;51.954;7.998;2023-03-11T20:24:54;13.50;;;7.10;;
15110;SDS011;7656;51.954;7.998;2023-03-11T20:29:15;9.23;;;6.00;;
15110;SDS011;7656;51.954;7.998;2023-03-11T20:33:36;10.60;;;6.33;;
15110;SDS011;7656;51.954;7.998;2023-03-11T20:37:58;9.23;;;6.40;;
15110;SDS011;7656;51.954;7.998;2023-03-11T20:42:19;7.67;;;6.20;;
15110;SDS011;7656;51.954;7.998;2023-03-11T20:46:40;8.40;;;6.07;;
15110;SDS011;7656;51.954;7.998;2023-03-11T20:51:03;6.13;;;4.47;;
15110;SDS011;7656;51.954;7.998;2023-03-11T20:55:27;5.33;;;4.60;;
15110;SDS011;7656;51.954;7.998;2023-03-11T20:59:48;6.67;;;4.90;;
15110;SDS011;7656;51.954;7.998;2023-03-11T21:04:09;7.13;;;6.30;;
15110;SDS011;7656;51.954;7.998;2023-03-11T21:08:30;8.07;;;6.07;;
15110;SDS011;7656;51.954;7.998;2023-03-11T21:12:53;8.43;;;6.17;;
15110;SDS011;7656;51.954;7.998;2023-03-11T21:17:14;11.83;;;6.27;;
15110;SDS011;7656;51.954;7.998;2023-03-11T21:21:36;7.67;;;6.60;;
15110;SDS011;7656;51.954;7.998;2023-03-11T21:25:57;14.40;;;6.50;;
15110;SDS011;7656;51.954;7.998;2023-03-11T21:30:20;11.87;;;7.93;;
15110;SDS011;7656;51.954;7.998;2023-03-11T21:34:42;14.50;;;8.37;;
15110;SDS011;7656;51.954;7.998;2023-03-11T21:39:03;16.87;;;9.60;;
15110;SDS011;7656;51.954;7.998;2023-03-11T21:43:25;11.67;;;7.40;;
15110;SDS011;7656;51.954;7.998;2023-03-11T21:47:46;15.93;;;9.43;;
15110;SDS011;7656;51.954;7.998;2023-03-11T21:52:07;16.73;;;8.73;;
15110;SDS011;7656;51.954;7.998;2023-03-11T21:56:28;10.00;;;6.40;;
15110;SDS011;7656;51.954;7.998;2023-03-11T22:00:49;10.30;;;6.37;;
15110;SDS011;7656;51.954;7.998;2023-03-11T22:05:10;11.87;;;7.10;;
15110;SDS011;7656;51.954;7.998;2023-03-11T22:09:31;9.23;;;5.93;;
15110;SDS011;7656;51.954;7.998;2023-03-11T22:13:52;9.23;;;5.53;;
15110;SDS011;7656;51.954;7.998;2023-03-11T22:18:15;9.57;;;6.87;;
15110;SDS011;7656;51.954;7.998;2023-03-11T22:22:36;11.37;;;6.50;;
15110;SDS011;7656;51.954;7.998;2023-03-11T22:26:57;9.77;;;6.50;;
15110;SDS011;7656;51.954;7.998;2023-03-11T22:31:18;10.00;;;6.67;;
15110;SDS011;7656;51.954;7.998;2023-03-11T22:35:39;10.33;;;5.70;;
15110;SDS011;7656;51.954;7.998;2023-03-11T22:40:00;8.47;;;5.60;;
15110;SDS011;7656;51.954;7.998;2023-03-11T22:44:21;7.20;;;5.83;;
15110;SDS011;7656;51.954;7.998;2023-03-11T22:48:43;6.57;;;4.83;;
15110;SDS011;7656;51.954;7.998;2023-03-11T22:53:04;6.50;;;5.23;;
15110;SDS011;7656;51.954;7.998;2023-03-11T22:57:25;7.57;;;4.70;;
15110;SDS011;7656;51.954;7.998;2023-03-11T23:01:46;9.47;;;5.23;;
15110;SDS011;7656;51.954;7.998;2023-03-11T23:06:08;6.37;;;4.63;;
15110;SDS011;7656;51.954;7.998;2023-03-11T23:10:34;7.67;;;4.60;;
15110;SDS011;7656;51.954;7.998;2023-03-11T23:14:55;4.97;;;4.17;;
15110;SDS011;7656;51.954;7.998;2023-03-11T23:19:16;5.53;;;4.10;;
15110;SDS011;7656;51.954;7.998;2023-03-11T23:23:37;6.80;;;3.80;;
15110;SDS011;7656;51.954;7.998;2023-03-11T23:27:59;5.23;;;3.37;;
15110;SDS011;7656;51.954;7.998;2023-03-11T23:32:22;6.97;;;3.60;;
15110;SDS011;7656;51.954;7.998;2023-03-11T23:36:43;6.30;;;3.60;;
15110;SDS011;7656;51.954;7.998;2023-03-11T23:41:09;6.70;;;4.27;;
15110;SDS011;7656;51.954;7.998;2023-03-11T23:45:33;6.13;;;3.60;;
15110;SDS011;7656;51.954;7.998;2023-03-11T23:49:54;5.93;;;3.80;;
15110;SDS011;7656;51.954;7.998;2023-03-11T23:54:15;6.20;;;4.53;;
15110;SDS011;7656;51.954;7.998;2023-03-11T23:58:36;7.73;;;4.20;;
